Celina, Ohio
Current Conditions -  °F | °C
As of 11:14 PM on Friday 31 Oct 2014 (Local Time) from KAXV Reporting Station
Light Snow Light Snow  
Wind Chill: 23°   Ceiling: 700
Heat Index: 34°   Visibility: 3mi
Dew Point: 34°   Wind: 18mph
Humidity: 100%   Direction: 340°NNW
Pressure: 30.06"   Gusts: 25mph
Location:  40.55°N, 84.57°W
Report Text: KAXV 010314Z AUTO 34016G22KT 3SM -SN OVC007 01/01 A3006 RMK AO2
Loading
Personal Weather Stations






























Interactive Weather Map
Tropical Storm Tracking
New forecast layout! Learn more

10-Day Weather Forecast

Advertisements
Track Severe Weather on mobile